sensor_id;sensor_type;location;lat;lon;timestamp;pressure;altitude;pressure_sealevel;temperature;humidity
74975;BME280;68459;50.836;19.138;2023-07-20T00:00:15;97805.66;;;17.85;58.12
74975;BME280;68459;50.836;19.138;2023-07-20T00:03:59;97805.16;;;17.83;58.38
74975;BME280;68459;50.836;19.138;2023-07-20T00:07:03;97794.47;;;17.87;58.18
74975;BME280;68459;50.836;19.138;2023-07-20T00:10:08;97790.59;;;17.93;58.07
74975;BME280;68459;50.836;19.138;2023-07-20T00:13:13;97785.34;;;17.96;58.06
74975;BME280;68459;50.836;19.138;2023-07-20T00:16:18;97783.13;;;17.98;58.20
74975;BME280;68459;50.836;19.138;2023-07-20T00:19:25;97772.44;;;18.02;58.29
74975;BME280;68459;50.836;19.138;2023-07-20T00:22:29;97777.91;;;18.02;58.50
74975;BME280;68459;50.836;19.138;2023-07-20T00:25:34;97783.34;;;18.02;58.60
74975;BME280;68459;50.836;19.138;2023-07-20T00:28:39;97787.41;;;18.04;58.46
74975;BME280;68459;50.836;19.138;2023-07-20T00:31:43;97788.81;;;18.02;58.35
74975;BME280;68459;50.836;19.138;2023-07-20T00:34:50;97785.34;;;17.96;58.99
74975;BME280;68459;50.836;19.138;2023-07-20T00:37:54;97791.97;;;17.90;58.91
74975;BME280;68459;50.836;19.138;2023-07-20T00:40:57;97798.53;;;17.89;58.98
74975;BME280;68459;50.836;19.138;2023-07-20T00:44:01;97796.63;;;17.90;59.35
74975;BME280;68459;50.836;19.138;2023-07-20T00:47:06;97803.41;;;17.92;59.26
74975;BME280;68459;50.836;19.138;2023-07-20T00:50:12;97812.69;;;17.91;59.73
74975;BME280;68459;50.836;19.138;2023-07-20T00:53:16;97819.63;;;17.84;59.79
74975;BME280;68459;50.836;19.138;2023-07-20T00:56:21;97834.13;;;17.79;59.38
74975;BME280;68459;50.836;19.138;2023-07-20T00:59:26;97839.81;;;17.83;59.63
74975;BME280;68459;50.836;19.138;2023-07-20T01:02:30;97853.03;;;17.94;59.28
74975;BME280;68459;50.836;19.138;2023-07-20T01:05:41;97850.44;;;18.08;58.09
74975;BME280;68459;50.836;19.138;2023-07-20T01:08:57;97865.81;;;18.23;57.26
74975;BME280;68459;50.836;19.138;2023-07-20T01:12:13;97863.75;;;18.33;56.60
74975;BME280;68459;50.836;19.138;2023-07-20T01:15:24;97873.19;;;18.41;55.77
74975;BME280;68459;50.836;19.138;2023-07-20T01:18:28;97866.34;;;18.43;55.71
74975;BME280;68459;50.836;19.138;2023-07-20T01:21:39;97858.44;;;18.42;54.89
74975;BME280;68459;50.836;19.138;2023-07-20T01:25:12;97858.66;;;18.45;54.47
74975;BME280;68459;50.836;19.138;2023-07-20T01:28:40;97867.91;;;18.49;54.14
74975;BME280;68459;50.836;19.138;2023-07-20T01:31:57;97863.47;;;18.53;54.04
74975;BME280;68459;50.836;19.138;2023-07-20T01:35:01;97870.84;;;18.53;54.14
74975;BME280;68459;50.836;19.138;2023-07-20T01:38:08;97894.13;;;18.50;53.95
74975;BME280;68459;50.836;19.138;2023-07-20T01:41:14;97905.31;;;18.49;53.79
74975;BME280;68459;50.836;19.138;2023-07-20T01:44:18;97926.66;;;18.47;53.61
74975;BME280;68459;50.836;19.138;2023-07-20T01:47:23;97917.69;;;18.41;53.66
74975;BME280;68459;50.836;19.138;2023-07-20T01:50:27;97910.97;;;18.34;53.88
74975;BME280;68459;50.836;19.138;2023-07-20T01:53:33;97907.84;;;18.22;54.23
74975;BME280;68459;50.836;19.138;2023-07-20T01:56:37;97928.19;;;18.10;54.64
74975;BME280;68459;50.836;19.138;2023-07-20T01:59:41;97933.03;;;17.90;55.62
74975;BME280;68459;50.836;19.138;2023-07-20T02:02:46;97930.28;;;17.61;56.63
74975;BME280;68459;50.836;19.138;2023-07-20T02:05:50;97929.16;;;17.33;56.96
74975;BME280;68459;50.836;19.138;2023-07-20T02:08:54;97924.97;;;17.12;57.35
74975;BME280;68459;50.836;19.138;2023-07-20T02:11:58;97925.88;;;16.97;58.20
74975;BME280;68459;50.836;19.138;2023-07-20T02:15:02;97915.94;;;16.77;58.86
74975;BME280;68459;50.836;19.138;2023-07-20T02:18:09;97921.44;;;16.62;59.50
74975;BME280;68459;50.836;19.138;2023-07-20T02:21:13;97940.84;;;16.45;59.52
74975;BME280;68459;50.836;19.138;2023-07-20T02:24:17;97952.34;;;16.27;60.44
74975;BME280;68459;50.836;19.138;2023-07-20T02:27:21;97961.91;;;16.14;61.09
74975;BME280;68459;50.836;19.138;2023-07-20T02:30:25;97951.06;;;16.04;61.38
74975;BME280;68459;50.836;19.138;2023-07-20T02:33:30;97947.00;;;15.96;61.90
74975;BME280;68459;50.836;19.138;2023-07-20T02:36:35;97967.97;;;15.96;61.90
74975;BME280;68459;50.836;19.138;2023-07-20T02:39:39;97981.00;;;15.94;61.72
74975;BME280;68459;50.836;19.138;2023-07-20T02:42:43;97982.09;;;15.93;62.15
74975;BME280;68459;50.836;19.138;2023-07-20T02:45:47;97980.47;;;15.92;62.19
74975;BME280;68459;50.836;19.138;2023-07-20T02:48:52;97991.88;;;15.89;62.78
74975;BME280;68459;50.836;19.138;2023-07-20T02:51:56;97998.69;;;15.86;63.16
74975;BME280;68459;50.836;19.138;2023-07-20T02:55:00;97991.88;;;15.89;62.91
74975;BME280;68459;50.836;19.138;2023-07-20T02:58:04;97988.06;;;15.90;63.77
74975;BME280;68459;50.836;19.138;2023-07-20T03:01:08;97985.34;;;15.90;63.96
74975;BME280;68459;50.836;19.138;2023-07-20T03:04:14;97987.53;;;15.93;64.48
74975;BME280;68459;50.836;19.138;2023-07-20T03:07:19;97987.81;;;15.91;64.00
74975;BME280;68459;50.836;19.138;2023-07-20T03:10:22;97998.97;;;15.90;64.60
74975;BME280;68459;50.836;19.138;2023-07-20T03:13:26;98004.13;;;15.86;64.47
74975;BME280;68459;50.836;19.138;2023-07-20T03:16:30;98003.88;;;15.83;64.97
74975;BME280;68459;50.836;19.138;2023-07-20T03:19:37;98018.53;;;15.77;64.84
74975;BME280;68459;50.836;19.138;2023-07-20T03:22:41;98047.38;;;15.73;64.79
74975;BME280;68459;50.836;19.138;2023-07-20T03:25:46;98028.63;;;15.66;65.34
74975;BME280;68459;50.836;19.138;2023-07-20T03:28:50;98030.25;;;15.62;65.66
74975;BME280;68459;50.836;19.138;2023-07-20T03:31:56;98021.81;;;15.63;65.48
74975;BME280;68459;50.836;19.138;2023-07-20T03:35:03;98028.34;;;15.67;66.18
74975;BME280;68459;50.836;19.138;2023-07-20T03:38:07;98015.03;;;15.66;66.10
74975;BME280;68459;50.836;19.138;2023-07-20T03:41:11;97998.44;;;15.67;66.24
74975;BME280;68459;50.836;19.138;2023-07-20T03:44:15;97988.34;;;15.73;66.15
74975;BME280;68459;50.836;19.138;2023-07-20T03:47:19;97984.28;;;15.81;66.37
74975;BME280;68459;50.836;19.138;2023-07-20T03:50:24;97979.91;;;15.85;66.53
74975;BME280;68459;50.836;19.138;2023-07-20T03:53:28;97974.47;;;15.85;66.75
74975;BME280;68459;50.836;19.138;2023-07-20T03:56:32;97975.84;;;15.87;66.78
74975;BME280;68459;50.836;19.138;2023-07-20T03:59:38;97977.19;;;15.90;67.01
74975;BME280;68459;50.836;19.138;2023-07-20T04:02:43;97982.91;;;15.93;67.08
74975;BME280;68459;50.836;19.138;2023-07-20T04:05:49;97990.81;;;15.95;66.97
74975;BME280;68459;50.836;19.138;2023-07-20T04:08:53;97990.22;;;15.98;67.24
74975;BME280;68459;50.836;19.138;2023-07-20T04:11:56;97999.22;;;16.03;67.26
74975;BME280;68459;50.836;19.138;2023-07-20T04:15:01;97993.75;;;16.14;66.89
74975;BME280;68459;50.836;19.138;2023-07-20T04:18:05;97989.13;;;16.24;67.43
74975;BME280;68459;50.836;19.138;2023-07-20T04:21:10;97991.78;;;16.29;67.40
74975;BME280;68459;50.836;19.138;2023-07-20T04:24:14;97981.44;;;16.36;66.88
74975;BME280;68459;50.836;19.138;2023-07-20T04:27:18;97976.53;;;16.38;66.98
74975;BME280;68459;50.836;19.138;2023-07-20T04:30:22;97983.84;;;16.48;67.12
74975;BME280;68459;50.836;19.138;2023-07-20T04:33:26;97995.50;;;16.59;67.38
74975;BME280;68459;50.836;19.138;2023-07-20T04:36:32;97990.91;;;16.64;66.99
74975;BME280;68459;50.836;19.138;2023-07-20T04:39:36;97986.22;;;16.75;66.78
74975;BME280;68459;50.836;19.138;2023-07-20T04:42:44;97997.06;;;16.85;67.03
74975;BME280;68459;50.836;19.138;2023-07-20T04:45:48;97998.13;;;16.89;66.93
74975;BME280;68459;50.836;19.138;2023-07-20T04:48:52;98010.34;;;16.97;66.89
74975;BME280;68459;50.836;19.138;2023-07-20T04:51:58;98015.25;;;16.95;67.04
74975;BME280;68459;50.836;19.138;2023-07-20T04:55:03;98010.13;;;16.88;67.02
74975;BME280;68459;50.836;19.138;2023-07-20T04:58:07;98009.59;;;16.86;66.88
74975;BME280;68459;50.836;19.138;2023-07-20T05:01:12;98023.19;;;16.86;67.19
74975;BME280;68459;50.836;19.138;2023-07-20T05:04:16;98019.66;;;16.91;67.03
74975;BME280;68459;50.836;19.138;2023-07-20T05:07:22;98020.97;;;16.93;67.68
74975;BME280;68459;50.836;19.138;2023-07-20T05:10:26;98021.22;;;17.02;67.39
74975;BME280;68459;50.836;19.138;2023-07-20T05:13:30;98029.06;;;17.14;67.21
74975;BME280;68459;50.836;19.138;2023-07-20T05:16:34;98033.91;;;17.22;67.08
74975;BME280;68459;50.836;19.138;2023-07-20T05:19:40;98026.00;;;17.20;66.52
74975;BME280;68459;50.836;19.138;2023-07-20T05:22:47;98047.03;;;17.15;66.96
74975;BME280;68459;50.836;19.138;2023-07-20T05:25:54;98037.28;;;17.03;67.20
74975;BME280;68459;50.836;19.138;2023-07-20T05:28:58;98022.06;;;16.92;67.02
74975;BME280;68459;50.836;19.138;2023-07-20T05:32:02;98025.13;;;16.86;67.19
74975;BME280;68459;50.836;19.138;2023-07-20T05:35:07;98026.75;;;16.82;67.06
74975;BME280;68459;50.836;19.138;2023-07-20T05:38:16;98027.03;;;16.80;67.78
74975;BME280;68459;50.836;19.138;2023-07-20T05:41:20;98028.66;;;16.81;67.46
74975;BME280;68459;50.836;19.138;2023-07-20T05:44:24;98023.75;;;16.83;67.88
74975;BME280;68459;50.836;19.138;2023-07-20T05:47:28;98012.56;;;16.90;67.54
74975;BME280;68459;50.836;19.138;2023-07-20T05:50:32;98003.53;;;16.94;67.24
74975;BME280;68459;50.836;19.138;2023-07-20T05:53:37;98011.16;;;16.97;68.22
74975;BME280;68459;50.836;19.138;2023-07-20T05:56:42;98017.69;;;17.01;67.67
74975;BME280;68459;50.836;19.138;2023-07-20T05:59:46;98023.66;;;17.03;66.92
74975;BME280;68459;50.836;19.138;2023-07-20T06:02:49;98027.72;;;17.06;67.34
74975;BME280;68459;50.836;19.138;2023-07-20T06:05:58;98025.25;;;17.15;67.33
74975;BME280;68459;50.836;19.138;2023-07-20T06:09:04;98025.16;;;17.25;66.93
74975;BME280;68459;50.836;19.138;2023-07-20T06:12:11;98020.47;;;17.35;66.90
74975;BME280;68459;50.836;19.138;2023-07-20T06:15:25;98015.75;;;17.46;66.94
74975;BME280;68459;50.836;19.138;2023-07-20T06:18:30;98020.34;;;17.56;66.46
74975;BME280;68459;50.836;19.138;2023-07-20T06:21:34;98021.66;;;17.63;66.43
74975;BME280;68459;50.836;19.138;2023-07-20T06:24:39;98019.44;;;17.70;66.31
74975;BME280;68459;50.836;19.138;2023-07-20T06:27:43;98033.53;;;17.77;66.00
74975;BME280;68459;50.836;19.138;2023-07-20T06:30:47;98028.00;;;17.88;65.92
74975;BME280;68459;50.836;19.138;2023-07-20T06:33:50;98032.56;;;17.97;65.66
74975;BME280;68459;50.836;19.138;2023-07-20T06:36:56;98032.78;;;18.01;65.63
74975;BME280;68459;50.836;19.138;2023-07-20T06:40:02;98035.47;;;18.06;65.72
74975;BME280;68459;50.836;19.138;2023-07-20T06:43:10;98035.72;;;18.09;65.64
74975;BME280;68459;50.836;19.138;2023-07-20T06:46:16;98035.28;;;18.26;65.62
74975;BME280;68459;50.836;19.138;2023-07-20T06:49:24;98036.19;;;18.45;65.23
74975;BME280;68459;50.836;19.138;2023-07-20T06:52:28;98039.88;;;18.60;64.69
74975;BME280;68459;50.836;19.138;2023-07-20T06:55:36;98039.78;;;18.65;64.59
74975;BME280;68459;50.836;19.138;2023-07-20T06:58:43;98039.69;;;18.75;64.36
74975;BME280;68459;50.836;19.138;2023-07-20T07:01:47;98036.47;;;18.92;64.25
74975;BME280;68459;50.836;19.138;2023-07-20T07:04:51;98048.69;;;19.18;63.95
74975;BME280;68459;50.836;19.138;2023-07-20T07:07:59;98045.91;;;19.42;63.35
74975;BME280;68459;50.836;19.138;2023-07-20T07:11:04;98053.94;;;19.57;62.75
74975;BME280;68459;50.836;19.138;2023-07-20T07:14:08;98055.75;;;19.62;62.67
74975;BME280;68459;50.836;19.138;2023-07-20T07:17:12;98054.59;;;19.68;62.52
74975;BME280;68459;50.836;19.138;2023-07-20T07:20:21;98058.03;;;19.73;62.38
74975;BME280;68459;50.836;19.138;2023-07-20T07:23:25;98063.09;;;19.66;62.51
74975;BME280;68459;50.836;19.138;2023-07-20T07:26:31;98061.47;;;19.65;62.39
74975;BME280;68459;50.836;19.138;2023-07-20T07:29:36;98060.41;;;19.61;62.56
74975;BME280;68459;50.836;19.138;2023-07-20T07:32:39;98069.06;;;19.68;62.49
74975;BME280;68459;50.836;19.138;2023-07-20T07:35:44;98075.84;;;19.71;62.30
74975;BME280;68459;50.836;19.138;2023-07-20T07:38:48;98071.41;;;19.75;62.17
74975;BME280;68459;50.836;19.138;2023-07-20T07:42:13;98072.81;;;19.72;62.20
74975;BME280;68459;50.836;19.138;2023-07-20T07:45:16;98081.72;;;19.64;62.03
74975;BME280;68459;50.836;19.138;2023-07-20T07:48:20;98089.69;;;19.79;61.76
74975;BME280;68459;50.836;19.138;2023-07-20T07:51:24;98081.84;;;19.91;61.53
74975;BME280;68459;50.836;19.138;2023-07-20T07:54:29;98082.59;;;20.11;61.18
74975;BME280;68459;50.836;19.138;2023-07-20T07:57:34;98082.97;;;20.23;60.65
74975;BME280;68459;50.836;19.138;2023-07-20T08:00:38;98082.22;;;20.36;60.45
74975;BME280;68459;50.836;19.138;2023-07-20T08:03:44;98089.94;;;20.48;60.09
74975;BME280;68459;50.836;19.138;2023-07-20T08:06:49;98093.81;;;20.60;59.56
74975;BME280;68459;50.836;19.138;2023-07-20T08:09:53;98106.00;;;20.68;59.49
74975;BME280;68459;50.836;19.138;2023-07-20T08:12:58;98089.78;;;20.72;59.29
74975;BME280;68459;50.836;19.138;2023-07-20T08:16:02;98090.91;;;20.84;59.18
74975;BME280;68459;50.836;19.138;2023-07-20T08:19:06;98094.03;;;21.05;58.77
74975;BME280;68459;50.836;19.138;2023-07-20T08:22:10;98092.00;;;21.11;58.08
74975;BME280;68459;50.836;19.138;2023-07-20T08:25:15;98104.69;;;21.07;57.95
74975;BME280;68459;50.836;19.138;2023-07-20T08:28:20;98104.31;;;20.99;57.88
74975;BME280;68459;50.836;19.138;2023-07-20T08:31:24;98104.31;;;20.86;57.74
74975;BME280;68459;50.836;19.138;2023-07-20T08:34:27;98099.50;;;20.78;58.19
74975;BME280;68459;50.836;19.138;2023-07-20T08:37:33;98095.88;;;20.96;57.50
74975;BME280;68459;50.836;19.138;2023-07-20T08:40:40;98091.72;;;21.26;57.17
74975;BME280;68459;50.836;19.138;2023-07-20T08:43:46;98094.63;;;21.57;56.44
74975;BME280;68459;50.836;19.138;2023-07-20T08:46:51;98096.94;;;21.63;56.21
74975;BME280;68459;50.836;19.138;2023-07-20T08:49:55;98106.13;;;21.81;55.73
74975;BME280;68459;50.836;19.138;2023-07-20T08:53:01;98105.44;;;21.98;55.35
74975;BME280;68459;50.836;19.138;2023-07-20T08:56:06;98106.53;;;22.11;54.62
74975;BME280;68459;50.836;19.138;2023-07-20T08:59:16;98094.44;;;22.12;54.62
74975;BME280;68459;50.836;19.138;2023-07-20T09:02:24;98111.81;;;22.21;54.35
74975;BME280;68459;50.836;19.138;2023-07-20T09:05:30;98110.22;;;22.28;54.05
74975;BME280;68459;50.836;19.138;2023-07-20T09:08:38;98113.66;;;22.34;53.39
74975;BME280;68459;50.836;19.138;2023-07-20T09:11:42;98112.41;;;22.40;53.40
74975;BME280;68459;50.836;19.138;2023-07-20T09:14:47;98122.22;;;22.32;53.02
74975;BME280;68459;50.836;19.138;2023-07-20T09:17:51;98115.09;;;22.31;53.01
74975;BME280;68459;50.836;19.138;2023-07-20T09:20:58;98112.41;;;22.40;53.06
74975;BME280;68459;50.836;19.138;2023-07-20T09:24:03;98123.38;;;22.62;52.75
74975;BME280;68459;50.836;19.138;2023-07-20T09:27:07;98136.47;;;22.65;52.13
74975;BME280;68459;50.836;19.138;2023-07-20T09:30:14;98142.72;;;22.80;51.78
74975;BME280;68459;50.836;19.138;2023-07-20T09:33:21;98145.69;;;22.92;50.93
74975;BME280;68459;50.836;19.138;2023-07-20T09:36:31;98149.81;;;23.03;50.90
74975;BME280;68459;50.836;19.138;2023-07-20T09:39:43;98142.38;;;23.03;49.83
74975;BME280;68459;50.836;19.138;2023-07-20T09:42:52;98142.09;;;22.83;50.10
74975;BME280;68459;50.836;19.138;2023-07-20T09:46:06;98135.13;;;22.77;50.58
74975;BME280;68459;50.836;19.138;2023-07-20T09:49:10;98141.28;;;22.82;50.53
74975;BME280;68459;50.836;19.138;2023-07-20T09:52:17;98147.50;;;22.96;50.27
74975;BME280;68459;50.836;19.138;2023-07-20T09:55:25;98152.28;;;23.13;50.00
74975;BME280;68459;50.836;19.138;2023-07-20T09:58:31;98143.25;;;23.21;49.71
74975;BME280;68459;50.836;19.138;2023-07-20T10:01:40;98144.56;;;23.32;49.55
74975;BME280;68459;50.836;19.138;2023-07-20T10:04:45;98149.81;;;23.42;49.61
74975;BME280;68459;50.836;19.138;2023-07-20T10:07:50;98147.03;;;23.42;49.41
74975;BME280;68459;50.836;19.138;2023-07-20T10:11:15;98146.69;;;23.44;49.50
74975;BME280;68459;50.836;19.138;2023-07-20T10:14:21;98142.19;;;23.48;49.53
74975;BME280;68459;50.836;19.138;2023-07-20T10:17:26;98144.94;;;23.48;49.53
74975;BME280;68459;50.836;19.138;2023-07-20T10:20:32;98137.16;;;23.41;49.33
74975;BME280;68459;50.836;19.138;2023-07-20T10:23:38;98139.41;;;23.39;49.47
74975;BME280;68459;50.836;19.138;2023-07-20T10:26:43;98142.34;;;23.43;49.39
74975;BME280;68459;50.836;19.138;2023-07-20T10:29:47;98127.13;;;23.45;49.25
74975;BME280;68459;50.836;19.138;2023-07-20T10:32:53;98135.06;;;23.47;49.04
74975;BME280;68459;50.836;19.138;2023-07-20T10:36:01;98136.63;;;23.31;49.06
74975;BME280;68459;50.836;19.138;2023-07-20T10:39:05;98135.81;;;23.30;49.30
74975;BME280;68459;50.836;19.138;2023-07-20T10:42:10;98136.50;;;23.44;49.00
74975;BME280;68459;50.836;19.138;2023-07-20T10:45:14;98131.69;;;23.59;48.41
74975;BME280;68459;50.836;19.138;2023-07-20T10:48:21;98126.47;;;23.49;48.28
74975;BME280;68459;50.836;19.138;2023-07-20T10:51:25;98133.59;;;23.41;48.46
74975;BME280;68459;50.836;19.138;2023-07-20T10:54:47;98120.88;;;23.71;48.31
74975;BME280;68459;50.836;19.138;2023-07-20T10:58:06;98126.25;;;24.28;47.15
74975;BME280;68459;50.836;19.138;2023-07-20T11:01:16;98129.47;;;24.04;46.84
74975;BME280;68459;50.836;19.138;2023-07-20T11:04:37;98130.44;;;23.73;47.47
74975;BME280;68459;50.836;19.138;2023-07-20T11:07:41;98137.22;;;23.59;48.01
74975;BME280;68459;50.836;19.138;2023-07-20T11:10:45;98141.75;;;23.55;48.09
74975;BME280;68459;50.836;19.138;2023-07-20T11:13:56;98135.88;;;23.48;47.88
74975;BME280;68459;50.836;19.138;2023-07-20T11:17:11;98134.47;;;23.19;48.22
74975;BME280;68459;50.836;19.138;2023-07-20T11:20:16;98135.81;;;23.30;48.24
74975;BME280;68459;50.836;19.138;2023-07-20T11:23:24;98137.88;;;23.56;47.72
74975;BME280;68459;50.836;19.138;2023-07-20T11:26:27;98128.50;;;23.91;47.40
74975;BME280;68459;50.836;19.138;2023-07-20T11:29:31;98122.66;;;24.19;46.90
74975;BME280;68459;50.836;19.138;2023-07-20T11:32:36;98119.13;;;24.09;46.86
74975;BME280;68459;50.836;19.138;2023-07-20T11:35:44;98130.28;;;23.70;47.32
74975;BME280;68459;50.836;19.138;2023-07-20T11:38:48;98123.69;;;23.31;48.28
74975;BME280;68459;50.836;19.138;2023-07-20T11:41:54;98136.88;;;23.03;48.62
74975;BME280;68459;50.836;19.138;2023-07-20T11:44:59;98130.97;;;22.65;49.25
74975;BME280;68459;50.836;19.138;2023-07-20T11:48:04;98134.84;;;22.33;49.96
74975;BME280;68459;50.836;19.138;2023-07-20T11:51:14;98151.25;;;22.02;50.59
74975;BME280;68459;50.836;19.138;2023-07-20T11:54:19;98141.66;;;21.64;51.97
74975;BME280;68459;50.836;19.138;2023-07-20T11:57:23;98140.16;;;21.17;53.15
74975;BME280;68459;50.836;19.138;2023-07-20T12:00:27;98139.94;;;20.86;54.29
74975;BME280;68459;50.836;19.138;2023-07-20T12:03:31;98148.97;;;20.73;55.06
74975;BME280;68459;50.836;19.138;2023-07-20T12:06:36;98136.28;;;20.77;55.85
74975;BME280;68459;50.836;19.138;2023-07-20T12:09:40;98135.66;;;20.80;55.42
74975;BME280;68459;50.836;19.138;2023-07-20T12:12:53;98129.81;;;21.00;55.31
74975;BME280;68459;50.836;19.138;2023-07-20T12:15:56;98127.59;;;21.29;54.62
74975;BME280;68459;50.836;19.138;2023-07-20T12:19:01;98117.09;;;21.45;54.11
74975;BME280;68459;50.836;19.138;2023-07-20T12:22:07;98113.34;;;21.77;53.94
74975;BME280;68459;50.836;19.138;2023-07-20T12:25:11;98121.91;;;22.12;53.09
74975;BME280;68459;50.836;19.138;2023-07-20T12:28:17;98127.91;;;22.36;52.85
74975;BME280;68459;50.836;19.138;2023-07-20T12:31:22;98125.41;;;22.48;52.75
74975;BME280;68459;50.836;19.138;2023-07-20T12:34:26;98114.94;;;22.59;52.64
74975;BME280;68459;50.836;19.138;2023-07-20T12:37:34;98119.97;;;22.65;52.51
74975;BME280;68459;50.836;19.138;2023-07-20T12:40:37;98127.72;;;22.86;52.27
74975;BME280;68459;50.836;19.138;2023-07-20T12:43:42;98116.31;;;23.01;51.56
74975;BME280;68459;50.836;19.138;2023-07-20T12:46:46;98116.34;;;23.09;51.10
74975;BME280;68459;50.836;19.138;2023-07-20T12:49:50;98106.84;;;23.33;50.82
74975;BME280;68459;50.836;19.138;2023-07-20T12:52:55;98090.09;;;23.69;50.44
74975;BME280;68459;50.836;19.138;2023-07-20T12:56:00;98102.91;;;23.99;49.65
74975;BME280;68459;50.836;19.138;2023-07-20T12:59:23;98103.81;;;24.55;48.88
74975;BME280;68459;50.836;19.138;2023-07-20T13:02:28;98091.56;;;24.82;48.10
74975;BME280;68459;50.836;19.138;2023-07-20T13:05:32;98091.09;;;25.47;46.88
74975;BME280;68459;50.836;19.138;2023-07-20T13:08:41;98090.06;;;26.68;45.48
74975;BME280;68459;50.836;19.138;2023-07-20T13:11:45;98097.00;;;28.95;42.73
74975;BME280;68459;50.836;19.138;2023-07-20T13:14:49;98111.94;;;32.43;37.60
74975;BME280;68459;50.836;19.138;2023-07-20T13:17:53;98098.88;;;35.06;32.66
74975;BME280;68459;50.836;19.138;2023-07-20T13:20:57;98120.28;;;36.58;31.01
74975;BME280;68459;50.836;19.138;2023-07-20T13:24:05;98104.56;;;37.74;29.09
74975;BME280;68459;50.836;19.138;2023-07-20T13:27:09;98109.47;;;36.53;29.64
74975;BME280;68459;50.836;19.138;2023-07-20T13:30:13;98108.56;;;35.40;30.78
74975;BME280;68459;50.836;19.138;2023-07-20T13:33:19;98102.88;;;36.84;30.32
74975;BME280;68459;50.836;19.138;2023-07-20T13:36:23;98096.25;;;36.46;29.64
74975;BME280;68459;50.836;19.138;2023-07-20T13:39:28;98104.09;;;35.75;30.83
74975;BME280;68459;50.836;19.138;2023-07-20T13:42:31;98109.16;;;37.06;28.98
74975;BME280;68459;50.836;19.138;2023-07-20T13:45:36;98105.72;;;35.51;30.09
74975;BME280;68459;50.836;19.138;2023-07-20T13:48:41;98099.44;;;33.52;31.56
74975;BME280;68459;50.836;19.138;2023-07-20T13:51:45;98110.06;;;36.01;30.05
74975;BME280;68459;50.836;19.138;2023-07-20T13:55:10;98105.91;;;40.12;25.44
74975;BME280;68459;50.836;19.138;2023-07-20T13:58:14;98113.19;;;42.98;22.50
74975;BME280;68459;50.836;19.138;2023-07-20T14:01:18;98125.06;;;40.44;23.86
74975;BME280;68459;50.836;19.138;2023-07-20T14:04:25;98132.28;;;37.31;26.88
74975;BME280;68459;50.836;19.138;2023-07-20T14:07:29;98125.31;;;36.00;28.50
74975;BME280;68459;50.836;19.138;2023-07-20T14:10:35;98122.47;;;33.82;30.78
74975;BME280;68459;50.836;19.138;2023-07-20T14:13:59;98132.75;;;31.63;33.17
74975;BME280;68459;50.836;19.138;2023-07-20T14:17:04;98117.03;;;30.22;35.07
74975;BME280;68459;50.836;19.138;2023-07-20T14:20:09;98127.00;;;29.53;35.86
74975;BME280;68459;50.836;19.138;2023-07-20T14:23:16;98128.00;;;28.97;36.06
74975;BME280;68459;50.836;19.138;2023-07-20T14:26:21;98128.06;;;27.89;36.95
74975;BME280;68459;50.836;19.138;2023-07-20T14:29:25;98131.25;;;26.70;38.21
74975;BME280;68459;50.836;19.138;2023-07-20T14:32:29;98152.13;;;25.63;39.70
74975;BME280;68459;50.836;19.138;2023-07-20T14:35:34;98136.34;;;24.79;40.74
74975;BME280;68459;50.836;19.138;2023-07-20T14:38:38;98135.00;;;24.30;41.46
74975;BME280;68459;50.836;19.138;2023-07-20T14:41:44;98144.06;;;23.87;42.35
74975;BME280;68459;50.836;19.138;2023-07-20T14:44:47;98154.25;;;23.69;42.92
74975;BME280;68459;50.836;19.138;2023-07-20T14:47:53;98141.81;;;24.06;42.93
74975;BME280;68459;50.836;19.138;2023-07-20T14:50:57;98136.88;;;24.72;41.95
74975;BME280;68459;50.836;19.138;2023-07-20T14:54:06;98140.03;;;25.09;41.94
74975;BME280;68459;50.836;19.138;2023-07-20T14:57:11;98144.03;;;25.20;42.13
74975;BME280;68459;50.836;19.138;2023-07-20T15:00:18;98137.56;;;25.16;41.45
74975;BME280;68459;50.836;19.138;2023-07-20T15:03:22;98135.25;;;25.27;41.57
74975;BME280;68459;50.836;19.138;2023-07-20T15:06:26;98132.66;;;25.21;41.83
74975;BME280;68459;50.836;19.138;2023-07-20T15:09:32;98129.13;;;25.12;41.94
74975;BME280;68459;50.836;19.138;2023-07-20T15:12:38;98124.19;;;24.89;42.16
74975;BME280;68459;50.836;19.138;2023-07-20T15:15:41;98119.31;;;24.85;42.42
74975;BME280;68459;50.836;19.138;2023-07-20T15:18:45;98114.88;;;25.40;42.15
74975;BME280;68459;50.836;19.138;2023-07-20T15:21:49;98115.91;;;26.72;40.30
74975;BME280;68459;50.836;19.138;2023-07-20T15:24:54;98124.03;;;27.87;38.98
74975;BME280;68459;50.836;19.138;2023-07-20T15:27:59;98120.28;;;30.85;35.62
74975;BME280;68459;50.836;19.138;2023-07-20T15:31:04;98120.69;;;33.63;31.92
74975;BME280;68459;50.836;19.138;2023-07-20T15:34:08;98124.47;;;36.11;29.24
74975;BME280;68459;50.836;19.138;2023-07-20T15:37:16;98132.56;;;37.92;26.82
74975;BME280;68459;50.836;19.138;2023-07-20T15:40:19;98126.22;;;39.13;25.41
74975;BME280;68459;50.836;19.138;2023-07-20T15:43:24;98135.41;;;40.11;23.58
74975;BME280;68459;50.836;19.138;2023-07-20T15:46:46;98127.59;;;40.38;21.58
74975;BME280;68459;50.836;19.138;2023-07-20T15:49:51;98125.28;;;40.73;23.23
74975;BME280;68459;50.836;19.138;2023-07-20T15:52:55;98140.41;;;41.18;23.14
74975;BME280;68459;50.836;19.138;2023-07-20T15:56:00;98130.50;;;41.26;22.46
74975;BME280;68459;50.836;19.138;2023-07-20T15:59:05;98133.22;;;41.30;22.51
74975;BME280;68459;50.836;19.138;2023-07-20T16:02:11;98127.22;;;41.44;22.46
74975;BME280;68459;50.836;19.138;2023-07-20T16:05:16;98133.88;;;41.54;22.06
74975;BME280;68459;50.836;19.138;2023-07-20T16:08:21;98135.91;;;41.37;21.51
74975;BME280;68459;50.836;19.138;2023-07-20T16:11:24;98133.56;;;40.44;22.08